Latest Weather Observations for Minnipa RS

IDS60801

Issued at 2:01 pm CST Thursday 5 May 2016 (issued every 30 minutes, with the page automatically refreshed every 10 minutes)

About weather observations | Map of weather stations | Latest weather observations for SA | Other Formats
Station Details ID: 018195 Name: MINNIPA PIRSA Lat: -32.84 Lon: 135.15 Height: 165.0 m
Data from the previous 72 hours. | See also: Recent months at Minnipa RS
Date/Time
CST
Temp
°C
App
Temp
°C
Dew
Point
Rel
Hum
%
Delta-T
°C
Wind Press
QNH
hPa
Press
MSL
hPa
Rain
since 9 am
mm
Dir
 
Spd
km/h
Gust
km/h
Spd
kts
Gust
kts
05/02:00pm 27.4 20.0 1.8 19 12.5 NW 30 46 16 25 1012.1 - 0.0
05/01:30pm 27.3 20.5 3.1 21 12.1 NW 28 41 15 22 1012.5 - 0.0
05/01:00pm 26.3 19.4 4.7 25 11.0 NW 30 39 16 21 1013.0 - 0.0
05/12:30pm 26.5 19.5 6.0 27 10.7 NNW 32 44 17 24 1013.6 - 0.0
05/12:00pm 25.0 18.4 6.2 30 9.8 NNW 30 39 16 21 1014.2 1014.1 0.0
05/11:30am 24.4 17.6 7.1 33 9.1 NNW 32 39 17 21 1014.7 - 0.0
05/11:00am 23.3 16.7 7.8 37 8.2 NNW 32 37 17 20 1015.1 - 0.0
05/10:30am 22.5 16.3 9.3 43 7.1 NNW 32 39 17 21 1015.4 - 0.0
05/10:00am 21.2 15.5 9.8 48 6.2 N 30 39 16 21 1015.6 - 0.0
05/09:30am 19.7 15.2 9.9 53 5.3 N 24 39 13 21 1015.8 - 0.0
05/09:00am 17.3 13.6 10.0 62 3.9 N 20 28 11 15 1015.8 1015.7 0.2
05/08:30am 15.4 11.5 9.5 68 3.1 N 20 26 11 14 1015.6 - 0.2
05/08:00am 14.3 9.9 8.9 70 2.8 N 22 26 12 14 1015.4 - 0.2
05/07:30am 13.4 8.6 8.7 73 2.4 N 24 28 13 15 1015.3 - 0.2
05/07:00am 13.1 9.0 8.6 74 2.3 N 20 24 11 13 1015.2 - 0.2
05/06:30am 13.3 9.1 8.4 72 2.5 N 20 24 11 13 1015.1 - 0.2
05/06:00am 13.3 9.1 8.4 72 2.5 NNE 20 24 11 13 1014.9 1014.8 0.2
05/05:30am 13.2 9.1 8.5 73 2.4 NNE 20 24 11 13 1014.8 - 0.2
05/05:00am 12.9 8.8 8.6 75 2.2 NNE 20 24 11 13 1014.8 - 0.2
05/04:30am 13.2 9.1 8.5 73 2.4 NNE 20 24 11 13 1014.8 - 0.2
05/04:00am 13.5 9.7 9.0 74 2.3 NNE 19 22 10 12 1014.8 - 0.2
05/03:30am 12.7 9.3 9.0 78 1.9 NNE 17 20 9 11 1015.0 - 0.2
05/03:00am 12.7 8.9 9.2 79 1.8 NE 19 20 10 11 1015.1 1015.0 0.2
05/02:30am 12.5 8.8 9.3 81 1.6 NNE 19 20 10 11 1015.5 - 0.2
05/02:00am 12.3 8.6 9.5 83 1.4 NNE 19 20 10 11 1015.8 - 0.2
05/01:30am 12.2 8.8 9.2 82 1.5 NNE 17 20 9 11 1016.0 - 0.2
05/01:00am 12.5 9.2 9.7 83 1.4 NNE 17 19 9 10 1016.0 - 0.2
05/12:30am 12.3 9.8 9.7 84 1.3 NNE 13 15 7 8 1016.3 - 0.2
05/12:00am 12.2 10.1 9.6 84 1.3 NNE 11 13 6 7 1016.5 1016.4 0.2
 
Date/Time
CST
Temp
°C
App
Temp
°C
Dew
Point
Rel
Hum
%
Delta-T
°C
Wind Press
QNH
hPa
Press
MSL
hPa
Rain
since 9 am
mm
Dir
 
Spd
km/h
Gust
km/h
Spd
kts
Gust
kts
04/11:30pm 12.3 9.9 9.9 85 1.2 NNE 13 15 7 8 1016.7 - 0.2
04/11:00pm 12.4 10.3 9.8 84 1.3 NNE 11 13 6 7 1017.1 - 0.2
04/10:30pm 12.2 10.1 9.6 84 1.3 N 11 11 6 6 1017.3 - 0.2
04/10:00pm 12.6 10.8 9.4 81 1.6 N 9 11 5 6 1017.6 - 0.2
04/09:30pm 13.2 11.8 9.6 79 1.9 N 7 9 4 5 1017.7 - 0.2
04/09:00pm 13.4 12.0 9.6 78 2.0 NNW 7 9 4 5 1017.8 1017.6 0.2
04/08:30pm 13.7 11.9 9.6 76 2.1 NNW 9 9 5 5 1017.7 - 0.2
04/08:00pm 14.3 12.9 9.7 74 2.4 NW 7 9 4 5 1017.5 - 0.2
04/07:30pm 14.0 12.7 9.2 73 2.5 NW 6 7 3 4 1017.5 - 0.2
04/07:00pm 14.7 13.2 9.3 70 2.8 WNW 7 11 4 6 1017.5 - 0.2
04/06:30pm 15.4 14.0 9.5 68 3.1 W 7 11 4 6 1017.0 - 0.2
04/06:00pm 16.2 14.4 9.4 64 3.6 W 9 11 5 6 1016.7 1016.6 0.2
04/05:30pm 17.7 13.8 9.3 58 4.4 W 20 28 11 15 1016.6 - 0.2
04/05:00pm 18.4 15.0 9.2 55 4.9 NW 17 24 9 13 1016.4 - 0.2
04/04:30pm 18.4 14.6 9.7 57 4.6 NW 20 26 11 14 1016.4 - 0.2
04/04:00pm 18.7 14.8 9.5 55 4.9 NW 20 28 11 15 1016.4 - 0.2
04/03:30pm 18.8 15.0 9.8 56 4.8 WNW 20 28 11 15 1016.4 - 0.2
04/03:00pm 18.9 15.2 9.4 54 5.0 WNW 19 26 10 14 1016.4 1016.3 0.2
04/02:30pm 18.7 14.7 10.3 58 4.5 NW 22 30 12 16 1016.7 - 0.0
04/02:00pm 18.5 14.3 9.8 57 4.6 NW 22 28 12 15 1017.0 - 0.0
04/01:30pm 18.5 14.6 10.8 61 4.2 NW 22 28 12 15 1017.3 - 0.0
04/01:00pm 17.8 14.7 10.4 62 4.0 WNW 17 24 9 13 1017.6 - 0.0
04/12:30pm 17.0 14.6 11.3 69 3.1 NW 15 20 8 11 1018.2 - 0.0
04/12:00pm 17.1 15.6 13.0 77 2.3 NW 13 19 7 10 1018.6 1018.5 0.0
04/11:30am 15.3 12.8 12.2 82 1.7 WNW 17 20 9 11 1019.0 - 0.0
04/11:00am 15.8 12.8 11.8 77 2.2 WNW 19 24 10 13 1019.0 - 0.0
04/10:30am 16.2 14.0 12.2 77 2.2 NW 15 17 8 9 1019.2 - 0.0
04/10:00am 15.0 13.3 12.5 85 1.4 NNW 13 17 7 9 1019.2 - 0.0
04/09:30am 13.9 12.2 12.5 91 0.8 NNW 13 17 7 9 1019.2 - 0.0
04/09:00am 12.7 10.4 11.8 94 0.5 N 15 17 8 9 1019.2 1019.1 2.6
04/08:30am 12.1 10.4 11.3 95 0.4 N 11 15 6 8 1019.0 - 2.6
04/08:00am 11.7 9.9 10.9 95 0.4 N 11 13 6 7 1018.7 - 2.6
04/07:30am 10.7 9.0 9.9 95 0.4 N 9 11 5 6 1018.4 - 2.6
04/07:00am 10.2 7.6 9.4 95 0.4 N 13 15 7 8 1018.1 - 2.6
04/06:30am 10.4 7.9 9.6 95 0.4 N 13 15 7 8 1017.8 - 2.6
04/06:00am 10.5 8.4 9.7 95 0.4 N 11 13 6 7 1017.6 1017.4 2.6
04/05:30am 10.6 8.5 9.7 94 0.5 N 11 13 6 7 1017.1 - 2.6
04/05:00am 11.0 9.4 10.1 94 0.5 NNW 9 11 5 6 1017.1 - 2.6
04/04:30am 11.4 9.5 10.5 94 0.5 NNW 11 13 6 7 1016.9 - 2.6
04/04:00am 11.9 10.5 11.0 94 0.5 NNW 9 13 5 7 1016.8 - 2.6
04/03:30am 11.6 9.8 10.7 94 0.5 N 11 13 6 7 1016.7 - 2.6
04/03:00am 11.3 9.3 10.2 93 0.6 NNW 11 13 6 7 1016.8 1016.7 2.6
04/02:30am 11.6 10.1 10.5 93 0.6 NW 9 11 5 6 1016.8 - 2.6
04/02:00am 11.9 10.8 10.8 93 0.6 NW 7 9 4 5 1016.8 - 2.6
04/01:30am 12.0 10.2 10.7 92 0.7 NW 11 13 6 7 1016.7 - 2.6
04/01:00am 12.5 10.8 11.2 92 0.7 WNW 11 15 6 8 1016.7 - 2.6
04/12:30am 11.9 10.0 10.6 92 0.7 NW 11 11 6 6 1016.7 - 2.6
04/12:00am 12.3 10.9 10.9 91 0.7 WNW 9 13 5 7 1016.7 1016.6 2.6
 
Date/Time
CST
Temp
°C
App
Temp
°C
Dew
Point
Rel
Hum
%
Delta-T
°C
Wind Press
QNH
hPa
Press
MSL
hPa
Rain
since 9 am
mm
Dir
 
Spd
km/h
Gust
km/h
Spd
kts
Gust
kts
03/11:30pm 13.1 11.5 11.7 91 0.8 WNW 11 17 6 9 1017.2 - 2.6
03/11:00pm 13.0 11.4 11.4 90 0.9 NW 11 15 6 8 1017.3 - 2.6
03/10:30pm 13.5 11.9 11.7 89 1.0 W 11 13 6 7 1017.2 - 2.6
03/10:00pm 13.3 11.8 12.0 92 0.7 W 11 15 6 8 1017.3 - 2.6
03/09:30pm 12.9 10.9 11.6 92 0.7 NW 13 15 7 8 1017.3 - 2.6
03/09:00pm 12.7 11.1 11.4 92 0.7 WNW 11 15 6 8 1016.9 1016.8 2.6
03/08:30pm 12.9 11.3 11.5 91 0.7 WNW 11 13 6 7 1016.7 - 2.6
03/08:00pm 13.4 11.5 11.8 90 0.9 W 13 15 7 8 1016.5 - 2.6
03/07:30pm 13.9 12.0 11.8 87 1.1 W 13 17 7 9 1016.2 - 2.6
03/07:00pm 14.7 12.6 12.4 86 1.3 WSW 15 22 8 12 1015.8 - 2.6
03/06:30pm 14.7 12.4 12.9 89 1.0 W 17 22 9 12 1015.4 - 2.6
03/06:00pm 15.1 12.2 12.8 86 1.3 W 20 26 11 14 1014.8 1014.7 2.6
03/05:30pm 16.1 11.8 12.1 77 2.2 SW 26 37 14 20 1014.2 - 2.6
03/05:00pm 17.6 13.1 11.4 67 3.4 WSW 26 35 14 19 1013.8 - 2.6
03/04:30pm 17.8 13.2 11.1 65 3.7 W 26 37 14 20 1013.4 - 2.6
03/04:00pm 18.0 14.9 12.2 69 3.2 W 20 26 11 14 1013.2 - 2.6
03/03:30pm 17.7 12.9 11.7 68 3.3 W 28 43 15 23 1013.0 - 2.6
03/03:00pm 17.9 13.1 11.7 67 3.4 W 28 39 15 21 1012.8 1012.6 2.6
03/02:30pm 18.8 14.2 11.1 61 4.2 W 26 39 14 21 1012.5 - 2.6
03/02:00pm 19.0 13.3 11.1 60 4.3 WSW 32 43 17 23 1012.5 - 2.6
03/01:30pm 19.0 13.2 10.8 59 4.5 W 32 44 17 24 1012.5 - 2.6
03/01:00pm 18.2 12.7 12.6 70 3.1 WSW 33 46 18 25 1012.7 - 2.6
03/12:30pm 16.9 12.1 14.0 83 1.7 W 32 43 17 23 1012.9 - 2.4
03/12:00pm 16.3 14.2 14.8 91 0.9 WSW 19 26 10 14 1013.1 1012.9 1.4
03/11:30am 15.5 12.9 13.9 90 0.9 WNW 20 30 11 16 1013.4 - 0.8
03/11:00am 16.9 13.1 13.6 81 1.9 WNW 26 35 14 19 1013.3 - 0.4
03/10:30am 15.1 11.2 13.3 89 1.0 WNW 26 35 14 19 1013.4 - 0.4
03/10:00am 13.6 8.9 12.0 90 0.9 WNW 28 37 15 20 1013.6 - 0.2
03/09:30am 15.1 10.3 11.5 79 1.9 WNW 28 39 15 21 1012.9 - 0.0
03/09:00am 14.7 10.4 9.3 70 2.8 NNW 22 30 12 16 1012.8 1012.6 0.0
03/08:30am 12.9 7.7 8.8 76 2.1 NNW 26 32 14 17 1012.7 - 0.0
03/08:00am 12.1 6.7 8.2 77 1.9 NNW 26 33 14 18 1012.5 - 0.0
03/07:30am 11.4 6.8 8.1 80 1.6 NNW 22 28 12 15 1012.2 - 0.0
03/07:00am 11.3 6.7 8.2 81 1.5 NNW 22 28 12 15 1012.0 - 0.0
03/06:30am 11.0 6.3 7.7 80 1.6 NNW 22 28 12 15 1011.8 - 0.0
03/06:00am 11.1 6.3 7.4 78 1.8 NNW 22 28 12 15 1011.8 1011.6 0.0
03/05:30am 10.6 5.8 7.3 80 1.6 NNW 22 26 12 14 1011.7 - 0.0
03/05:00am 10.7 5.9 7.4 80 1.6 NNW 22 28 12 15 1011.5 - 0.0
03/04:30am 10.8 6.0 7.5 80 1.6 NNW 22 30 12 16 1011.4 - 0.0
03/04:00am 10.3 5.9 7.5 83 1.4 NNW 20 28 11 15 1011.4 - 0.0
03/03:30am 10.2 5.8 7.6 84 1.3 NNW 20 24 11 13 1011.6 - 0.0
03/03:00am 10.1 6.0 7.7 85 1.2 NNW 19 24 10 13 1011.8 1011.6 0.0
03/02:30am 10.3 6.0 7.9 85 1.2 NNW 20 24 11 13 1012.0 - 0.0
03/02:00am 10.3 6.1 8.1 86 1.1 N 20 28 11 15 1012.3 - 0.0
03/01:30am 10.3 6.1 8.1 86 1.1 N 20 24 11 13 1012.7 - 0.0
03/01:00am 10.7 6.8 8.5 86 1.1 NNW 19 20 10 11 1012.9 - 0.0
03/12:30am 10.6 6.6 8.4 86 1.1 NNW 19 22 10 12 1013.2 - 0.0
03/12:00am 11.2 7.7 8.8 85 1.2 NNW 17 20 9 11 1013.4 1013.3 0.0
 
Date/Time
CST
Temp
°C
App
Temp
°C
Dew
Point
Rel
Hum
%
Delta-T
°C
Wind Press
QNH
hPa
Press
MSL
hPa
Rain
since 9 am
mm
Dir
 
Spd
km/h
Gust
km/h
Spd
kts
Gust
kts
02/11:30pm 11.5 8.0 8.9 84 1.3 NNW 17 20 9 11 1013.6 - 0.0
02/11:00pm 11.4 7.9 8.8 84 1.3 NNW 17 20 9 11 1013.9 - 0.0
02/10:30pm 11.8 8.4 9.2 84 1.3 NNW 17 20 9 11 1014.2 - 0.0
02/10:00pm 12.2 8.9 9.6 84 1.3 NW 17 28 9 15 1014.5 - 0.0
02/09:30pm 12.5 9.3 10.0 85 1.3 NNW 17 20 9 11 1014.5 - 0.0
02/09:00pm 12.5 9.7 9.9 84 1.3 NNW 15 19 8 10 1014.6 1014.5 0.0
02/08:30pm 13.2 10.0 10.0 81 1.7 NW 17 20 9 11 1014.6 - 0.0
02/08:00pm 13.8 10.9 9.6 76 2.2 WNW 15 20 8 11 1014.7 - 0.0
02/07:30pm 14.3 11.1 8.5 68 2.9 WNW 15 20 8 11 1014.6 - 0.0
02/07:00pm 14.4 10.8 6.7 60 3.8 NW 15 19 8 10 1014.3 - 0.0
02/06:30pm 15.5 12.3 7.0 57 4.2 WNW 13 17 7 9 1014.1 - 0.0
02/06:00pm 16.5 12.2 6.9 53 4.8 W 19 22 10 12 1014.0 1013.9 0.0
02/05:30pm 17.7 13.3 7.2 50 5.3 W 20 30 11 16 1014.0 - 0.0
02/05:00pm 18.4 11.9 6.6 46 5.9 W 30 43 16 23 1014.1 - 0.0
02/04:30pm 19.0 12.7 7.4 47 5.9 W 30 39 16 21 1014.1 - 0.0
02/04:00pm 19.2 12.5 7.3 46 6.1 W 32 43 17 23 1014.1 - 0.0
02/03:30pm 19.4 13.2 7.8 47 6.0 W 30 39 16 21 1014.1 - 0.0
02/03:00pm 19.2 13.0 7.9 48 5.8 W 30 37 16 20 1014.1 1014.0 0.0
02/02:30pm 19.6 13.8 8.0 47 6.0 W 28 39 15 21 1014.3 - 0.0

Other Formats:

Comma delimited format used in spreadsheet applications
http://www.bom.gov.au/fwo/IDS60801/IDS60801.95662.axf

JavaScript Object Notation format (JSON) in row-major order
http://www.bom.gov.au/fwo/IDS60801/IDS60801.95662.json